Terminal Aerodrome Forecast
Issued by NWS

Home | Current Version | Previous Version | Text Only | Print | Product List | Glossary On
Versions: 1 2 3 4 5 6 7 8 9 10 11 12 13 14 15 16 17 18 19
500
FTUS44 KBMX 290520
TAFTCL
TAF
KTCL 290520Z 2906/3006 22003KT P6SM SKC
     FM290800 22003KT P6SM BKN015
     FM291500 23008KT P6SM VCSH BKN035
     FM291800 25008KT P6SM VCTS BKN050CB=

USA.gov is the U.S. government's official web portal to all federal, state and local government web resources and services.